Walworth, United Kingdom
Current Conditions -  °F | °C
As of 9:20 AM on Sunday 21 Dec 2014 (Local Time) from EGLC Reporting Station
Overcast Overcast  
Wind Chill: 42°   Ceiling: 3000
Heat Index: 48°   Visibility: 6mi
Dew Point: 41°   Wind: 16mph
Humidity: 76%   Direction: 250°WSW
Pressure: 30.33"   Gusts: 28mph
Location:  51.49°N, 0.09°W
Report Text: EGLC 210920Z AUTO 25014G24KT 9999 FEW018/// OVC030/// 09/05 Q1027
Loading
Personal Weather Stations






























Interactive Weather Map New forecast layout! Learn more

10-Day Weather Forecast

Advertisements
Track Severe Weather on mobile